Time;durP1;ratioP1;P1;durP2;ratioP2;P2;SDS_P1;SDS_P2;PMS_P1;PMS_P2;Temp;Humidity;BMP_temperature;BMP_pressure;BME280_temperature;BME280_humidity;BME280_pressure;Samples;Min_cycle;Max_cycle;Signal;HPM_P1;HPM_P2
2023/08/09 00:00:08;;;;;;;;;;;;;;;14.46;100.00;101198.47;5010978;28;19970;-59
2023/08/09 00:02:33;;;;;;;;;;;;;;;14.47;100.00;101200.22;5011014;28;20475;-59
2023/08/09 00:04:58;;;;;;;;;;;;;;;14.46;100.00;101194.09;4992713;28;19917;-59
2023/08/09 00:07:24;;;;;;;;;;;;;;;14.43;100.00;101197.53;5010015;28;19921;-59
2023/08/09 00:09:49;;;;;;;;;;;;;;;14.43;100.00;101192.31;5010204;28;19929;-60
2023/08/09 00:12:14;;;;;;;;;;;;;;;14.40;100.00;101202.75;5010993;28;19917;-60
2023/08/09 00:14:39;;;;;;;;;;;;;;;14.41;100.00;101204.53;5009269;28;20295;-60
2023/08/09 00:17:04;;;;;;;;;;;;;;;14.45;100.00;101200.19;4989413;28;19925;-60
2023/08/09 00:19:30;;;;;;;;;;;;;;;14.50;100.00;101214.25;5007168;28;19927;-60
2023/08/09 00:21:55;;;;;;;;;;;;;;;14.54;100.00;101204.66;5010114;28;20526;-60
2023/08/09 00:24:20;;;;;;;;;;;;;;;14.51;100.00;101207.25;5007973;28;20319;-59
2023/08/09 00:26:45;;;;;;;;;;;;;;;14.50;100.00;101209.00;5010113;28;20303;-60
2023/08/09 00:29:11;;;;;;;;;;;;;;;14.50;100.00;101208.13;5007508;28;19917;-60
2023/08/09 00:31:36;;;;;;;;;;;;;;;14.47;100.00;101211.59;5009213;28;19921;-60
2023/08/09 00:34:02;;;;;;;;;;;;;;;14.46;100.00;101201.09;5010312;28;19917;-60
2023/08/09 00:36:27;;;;;;;;;;;;;;;14.39;100.00;101200.97;5008591;28;19921;-60
2023/08/09 00:38:53;;;;;;;;;;;;;;;14.37;100.00;101197.47;5008670;28;19972;-60
2023/08/09 00:41:18;;;;;;;;;;;;;;;14.36;100.00;101185.22;5007095;28;20403;-60
2023/08/09 00:43:44;;;;;;;;;;;;;;;14.39;100.00;101194.88;5009474;28;19936;-60
2023/08/09 00:46:09;;;;;;;;;;;;;;;14.42;100.00;101201.06;5010771;28;20184;-60
2023/08/09 00:48:34;;;;;;;;;;;;;;;14.46;100.00;101207.19;5011008;28;20442;-59
2023/08/09 00:50:59;;;;;;;;;;;;;;;14.46;100.00;101212.44;5010706;28;20272;-60
2023/08/09 00:53:25;;;;;;;;;;;;;;;14.49;100.00;101209.88;5011045;28;20330;-60
2023/08/09 00:55:50;;;;;;;;;;;;;;;14.51;100.00;101205.53;5010787;28;19992;-60
2023/08/09 00:58:15;;;;;;;;;;;;;;;14.54;100.00;101210.81;5011070;28;20351;-60
2023/08/09 01:00:40;;;;;;;;;;;;;;;14.55;100.00;101217.81;5010977;28;19935;-60
2023/08/09 01:03:06;;;;;;;;;;;;;;;14.58;100.00;101220.50;5010965;28;20016;-60
2023/08/09 01:05:39;;;;;;;;;;;;;;;14.58;100.00;101227.47;5010114;28;19937;-60
2023/08/09 01:08:11;;;;;;;;;;;;;;;14.59;100.00;101218.75;5010370;28;19917;-60
2023/08/09 01:10:49;;;;;;;;;;;;;;;14.59;100.00;101221.34;5011382;28;19913;-60
2023/08/09 01:13:19;;;;;;;;;;;;;;;14.56;100.00;101213.47;5006656;28;19915;-60
2023/08/09 01:15:45;;;;;;;;;;;;;;;14.56;100.00;101221.31;5008941;28;19917;-60
2023/08/09 01:18:10;;;;;;;;;;;;;;;14.51;100.00;101221.28;5008263;28;19914;-60
2023/08/09 01:20:36;;;;;;;;;;;;;;;14.50;100.00;101221.25;5010227;28;19917;-60
2023/08/09 01:23:03;;;;;;;;;;;;;;;14.51;100.00;101217.75;5007543;28;20352;-60
2023/08/09 01:25:29;;;;;;;;;;;;;;;14.50;100.00;101224.75;5009019;28;19913;-60
2023/08/09 01:27:54;;;;;;;;;;;;;;;14.48;100.00;101220.34;5009245;28;20303;-60
2023/08/09 01:30:20;;;;;;;;;;;;;;;14.49;100.00;101219.47;5008924;28;19913;-60
2023/08/09 01:32:46;;;;;;;;;;;;;;;14.50;100.00;101218.63;5008311;28;20212;-60
2023/08/09 01:35:11;;;;;;;;;;;;;;;14.52;100.00;101225.63;5011324;28;19913;-60
2023/08/09 01:37:58;;;;;;;;;;;;;;;14.53;100.00;101224.78;5011534;28;20028;-60
2023/08/09 01:40:23;;;;;;;;;;;;;;;14.49;100.00;101224.72;5012980;28;19927;-60
2023/08/09 01:42:51;;;;;;;;;;;;;;;14.49;100.00;101229.97;5013843;28;19935;-60
2023/08/09 01:45:17;;;;;;;;;;;;;;;14.49;100.00;101232.59;4995871;28;19952;-60
2023/08/09 01:47:42;;;;;;;;;;;;;;;14.51;100.00;101234.38;5013264;28;19921;-60
2023/08/09 01:50:24;;;;;;;;;;;;;;;14.51;100.00;101231.75;5009365;28;19975;-60
2023/08/09 01:52:49;;;;;;;;;;;;;;;14.48;100.00;101234.31;5013233;28;19917;-60
2023/08/09 01:55:17;;;;;;;;;;;;;;;14.47;100.00;101244.78;5013527;28;20265;-60
2023/08/09 01:57:44;;;;;;;;;;;;;;;14.45;100.00;101239.53;5012666;28;19913;-60
2023/08/09 02:00:10;;;;;;;;;;;;;;;14.43;100.00;101239.50;4994465;28;19917;-60
2023/08/09 02:02:35;;;;;;;;;;;;;;;14.41;100.00;101230.75;5009064;28;19987;-60
2023/08/09 02:05:01;;;;;;;;;;;;;;;14.37;100.00;101241.16;5012710;28;20395;-60
2023/08/09 02:07:26;;;;;;;;;;;;;;;14.33;100.00;101242.84;5013206;28;19917;-60
2023/08/09 02:09:51;;;;;;;;;;;;;;;14.32;100.00;101246.31;5013158;28;20387;-60
2023/08/09 02:12:16;;;;;;;;;;;;;;;14.32;100.00;101250.69;5012632;28;19921;-60
2023/08/09 02:14:41;;;;;;;;;;;;;;;14.31;100.00;101244.59;5013025;28;19921;-60
2023/08/09 02:17:09;;;;;;;;;;;;;;;14.28;100.00;101249.78;5012398;28;19924;-60
2023/08/09 02:19:35;;;;;;;;;;;;;;;14.26;100.00;101246.25;5011399;28;19957;-60
2023/08/09 02:22:00;;;;;;;;;;;;;;;14.21;100.00;101253.16;5012029;28;19960;-60
2023/08/09 02:24:25;;;;;;;;;;;;;;;14.13;100.00;101255.66;5010789;28;19964;-60
2023/08/09 02:26:50;;;;;;;;;;;;;;;14.11;100.00;101259.09;5011186;28;19988;-60
2023/08/09 02:29:15;;;;;;;;;;;;;;;14.05;100.00;101255.53;5012748;28;20383;-60
2023/08/09 02:31:41;;;;;;;;;;;;;;;13.93;100.00;101247.47;5011672;28;19913;-60
2023/08/09 02:34:06;;;;;;;;;;;;;;;13.82;100.00;101259.53;5011576;28;19918;-60
2023/08/09 02:36:31;;;;;;;;;;;;;;;13.78;100.00;101261.19;5012821;28;20307;-59
2023/08/09 02:38:56;;;;;;;;;;;;;;;13.76;100.00;101264.66;5010788;28;19918;-60
2023/08/09 02:41:22;;;;;;;;;;;;;;;13.74;100.00;101272.47;5011786;28;20379;-60
2023/08/09 02:43:47;;;;;;;;;;;;;;;13.73;100.00;101282.09;5012667;28;20172;-60
2023/08/09 02:46:12;;;;;;;;;;;;;;;13.70;100.00;101281.13;5011168;28;20008;-60
2023/08/09 02:48:39;;;;;;;;;;;;;;;13.68;100.00;101278.50;5011603;28;20294;-60
2023/08/09 02:51:04;;;;;;;;;;;;;;;13.65;100.00;101278.44;5011284;28;19921;-60
2023/08/09 02:53:34;;;;;;;;;;;;;;;13.63;100.00;101285.41;5010028;28;19909;-60
2023/08/09 02:55:59;;;;;;;;;;;;;;;13.60;100.00;101285.34;5011511;28;19917;-60
2023/08/09 02:58:24;;;;;;;;;;;;;;;13.58;100.00;101292.28;5012402;28;19909;-60
2023/08/09 03:00:49;;;;;;;;;;;;;;;13.55;100.00;101292.22;5012658;28;20433;-60
2023/08/09 03:03:15;;;;;;;;;;;;;;;13.53;100.00;101292.19;5012240;28;19910;-60
2023/08/09 03:05:40;;;;;;;;;;;;;;;13.48;100.00;101291.22;5011365;28;19913;-60
2023/08/09 03:08:05;;;;;;;;;;;;;;;13.45;100.00;101290.28;5011214;28;19924;-60
2023/08/09 03:10:31;;;;;;;;;;;;;;;13.47;100.00;101297.31;5012398;28;19952;-60
2023/08/09 03:12:56;;;;;;;;;;;;;;;13.48;100.00;101301.69;5011965;28;20008;-60
2023/08/09 03:15:22;;;;;;;;;;;;;;;13.48;100.00;101306.03;5011200;28;19916;-60
2023/08/09 03:17:48;;;;;;;;;;;;;;;13.47;100.00;101299.94;5011790;28;20350;-60
2023/08/09 03:20:13;;;;;;;;;;;;;;;13.44;100.00;101297.25;5012011;28;19913;-60
2023/08/09 03:22:39;;;;;;;;;;;;;;;13.41;100.00;101297.19;5008415;28;19964;-60
2023/08/09 03:25:04;;;;;;;;;;;;;;;13.40;100.00;101298.06;5010569;28;19909;-60
2023/08/09 03:27:30;;;;;;;;;;;;;;;13.38;100.00;101295.41;5009785;28;20295;-60
2023/08/09 03:29:55;;;;;;;;;;;;;;;13.34;100.00;101303.16;5010402;28;19909;-60
2023/08/09 03:32:20;;;;;;;;;;;;;;;13.31;100.00;101303.97;5010903;28;19956;-60
2023/08/09 03:34:46;;;;;;;;;;;;;;;13.28;100.00;101310.84;5010694;28;19972;-60
2023/08/09 03:37:11;;;;;;;;;;;;;;;13.25;100.00;101306.44;5009472;28;20076;-60
2023/08/09 03:39:36;;;;;;;;;;;;;;;13.23;100.00;101310.75;5008867;28;20298;-60
2023/08/09 03:42:01;;;;;;;;;;;;;;;13.16;100.00;101319.34;5009128;28;19916;-59
2023/08/09 03:44:26;;;;;;;;;;;;;;;13.00;100.00;101326.84;5010588;28;19993;-59
2023/08/09 03:46:52;;;;;;;;;;;;;;;12.86;100.00;101329.19;5006201;28;19913;-60
2023/08/09 03:49:17;;;;;;;;;;;;;;;12.80;100.00;101344.75;5011064;28;19967;-60
2023/08/09 03:51:42;;;;;;;;;;;;;;;12.80;100.00;101341.25;5009811;28;19913;-60
2023/08/09 03:54:07;;;;;;;;;;;;;;;12.80;100.00;101338.63;5011407;28;19939;-60
2023/08/09 03:56:32;;;;;;;;;;;;;;;12.78;100.00;101341.22;5009472;28;19917;-60
2023/08/09 03:58:57;;;;;;;;;;;;;;;12.78;100.00;101342.94;5010271;28;19917;-60
2023/08/09 04:01:23;;;;;;;;;;;;;;;12.77;100.00;101351.63;5009325;28;20356;-60
2023/08/09 04:03:48;;;;;;;;;;;;;;;12.76;100.00;101355.09;5010612;28;19913;-60
2023/08/09 04:06:14;;;;;;;;;;;;;;;12.76;100.00;101345.53;5010509;28;19909;-60
2023/08/09 04:08:39;;;;;;;;;;;;;;;12.76;100.00;101355.09;5009299;28;20395;-60
2023/08/09 04:11:04;;;;;;;;;;;;;;;12.73;100.00;101353.31;5010799;28;19914;-60
2023/08/09 04:13:30;;;;;;;;;;;;;;;12.73;100.00;101355.03;5011098;28;19996;-60
2023/08/09 04:15:55;;;;;;;;;;;;;;;12.74;100.00;101355.06;5010009;28;19971;-60
2023/08/09 04:18:21;;;;;;;;;;;;;;;12.77;100.00;101364.72;5009983;28;19944;-60
2023/08/09 04:20:46;;;;;;;;;;;;;;;12.77;100.00;101364.72;5009155;28;19913;-60
2023/08/09 04:23:12;;;;;;;;;;;;;;;12.72;100.00;101362.00;5009129;28;19928;-60
2023/08/09 04:25:37;;;;;;;;;;;;;;;12.67;100.00;101367.13;5011834;28;20410;-60
2023/08/09 04:28:03;;;;;;;;;;;;;;;12.66;100.00;101367.09;5010305;28;19924;-60
2023/08/09 04:30:28;;;;;;;;;;;;;;;12.66;100.00;101365.34;5009685;28;19913;-60
2023/08/09 04:32:53;;;;;;;;;;;;;;;12.68;100.00;101362.78;5007751;28;19997;-60
2023/08/09 04:35:18;;;;;;;;;;;;;;;12.65;100.00;101367.94;5009519;28;20462;-60
2023/08/09 04:37:44;;;;;;;;;;;;;;;12.61;100.00;101368.69;5009447;28;19921;-60
2023/08/09 04:40:10;;;;;;;;;;;;;;;12.56;100.00;101365.97;5010099;28;20357;-60
2023/08/09 04:42:36;;;;;;;;;;;;;;;12.56;100.00;101365.97;5011247;28;19913;-60
2023/08/09 04:45:03;;;;;;;;;;;;;;;12.57;100.00;101370.38;5011148;28;19931;-59
2023/08/09 04:47:28;;;;;;;;;;;;;;;12.60;100.00;101382.59;5009552;28;19917;-60
2023/08/09 04:49:53;;;;;;;;;;;;;;;12.61;100.00;101382.66;5010653;28;19920;-60
2023/08/09 04:52:18;;;;;;;;;;;;;;;12.64;100.00;101376.59;4992916;28;19917;-60
2023/08/09 04:54:43;;;;;;;;;;;;;;;12.66;100.00;101375.81;5011244;28;19917;-60
2023/08/09 04:57:09;;;;;;;;;;;;;;;12.66;100.00;101381.03;5009566;28;19920;-60
2023/08/09 04:59:34;;;;;;;;;;;;;;;12.68;100.00;101381.06;5011105;28;19921;-60
2023/08/09 05:01:59;;;;;;;;;;;;;;;12.71;100.00;101381.13;5010887;28;19997;-60
2023/08/09 05:04:24;;;;;;;;;;;;;;;12.75;100.00;101389.94;5009484;28;19917;-60
2023/08/09 05:06:50;;;;;;;;;;;;;;;12.79;100.00;101391.75;5010532;28;20371;-60
2023/08/09 05:09:15;;;;;;;;;;;;;;;12.80;100.00;101394.44;5009809;28;20167;-59
2023/08/09 05:11:40;;;;;;;;;;;;;;;12.83;100.00;101398.84;5010271;28;19936;-60
2023/08/09 05:14:06;;;;;;;;;;;;;;;12.86;100.00;101397.19;5010085;28;20273;-60
2023/08/09 05:16:31;;;;;;;;;;;;;;;12.87;100.00;101391.13;5009690;28;19917;-60
2023/08/09 05:18:56;;;;;;;;;;;;;;;12.90;100.00;101395.53;5008529;28;20330;-60
2023/08/09 05:21:22;;;;;;;;;;;;;;;12.91;100.00;101396.44;5009977;28;19913;-60
2023/08/09 05:23:47;;;;;;;;;;;;;;;12.94;100.00;101399.97;5009328;28;20367;-60
2023/08/09 05:26:12;;;;;;;;;;;;;;;12.97;100.00;101400.03;4991047;28;19914;-60
2023/08/09 05:28:37;;;;;;;;;;;;;;;13.01;100.00;101404.50;5009327;28;19924;-60
2023/08/09 05:31:02;;;;;;;;;;;;;;;13.05;100.00;101406.34;5008373;28;19917;-60
2023/08/09 05:33:27;;;;;;;;;;;;;;;13.12;100.00;101411.69;5009029;28;19914;-60
2023/08/09 05:35:53;;;;;;;;;;;;;;;13.14;100.00;101416.13;5006480;28;19917;-60
2023/08/09 05:38:18;;;;;;;;;;;;;;;13.17;100.00;101415.31;5009415;28;20334;-60
2023/08/09 05:40:43;;;;;;;;;;;;;;;13.20;100.00;101425.84;5009333;28;19915;-60
2023/08/09 05:43:08;;;;;;;;;;;;;;;13.26;100.00;101425.97;5009373;28;19906;-60
2023/08/09 05:45:33;;;;;;;;;;;;;;;13.31;100.00;101416.50;5010646;28;19909;-60
2023/08/09 05:47:59;;;;;;;;;;;;;;;13.36;100.00;101417.50;5009636;28;20017;-60
2023/08/09 05:50:24;;;;;;;;;;;;;;;13.41;100.00;101419.34;5008955;28;19936;-60
2023/08/09 05:52:49;;;;;;;;;;;;;;;13.45;100.00;101419.44;5009036;28;20379;-60
2023/08/09 05:55:14;;;;;;;;;;;;;;;13.48;100.00;101424.72;5007568;28;20634;-60
2023/08/09 05:57:40;;;;;;;;;;;;;;;13.52;100.00;101433.53;5008614;28;20375;-60
2023/08/09 06:00:06;;;;;;;;;;;;;;;13.54;100.00;101424.88;5009529;28;19925;-60
2023/08/09 06:02:34;;;;;;;;;;;;;;;13.56;100.00;101431.00;5007946;28;20295;-60
2023/08/09 06:05:00;;;;;;;;;;;;;;;13.60;100.00;101429.34;5006866;28;20288;-60
2023/08/09 06:07:25;;;;;;;;;;;;;;;13.64;100.00;101432.91;4990758;28;19914;-60
2023/08/09 06:09:50;;;;;;;;;;;;;;;13.64;100.00;101446.88;5010498;28;20000;-60
2023/08/09 06:12:15;;;;;;;;;;;;;;;13.65;100.00;101450.41;5009142;28;19935;-60
2023/08/09 06:14:41;;;;;;;;;;;;;;;13.67;100.00;101444.34;5008708;28;19968;-60
2023/08/09 06:17:06;;;;;;;;;;;;;;;13.64;100.00;101453.84;5009200;28;19952;-60
2023/08/09 06:19:32;;;;;;;;;;;;;;;13.64;100.00;101465.19;5008401;28;19933;-60
2023/08/09 06:21:58;;;;;;;;;;;;;;;13.63;100.00;101466.06;5009625;28;20003;-60
2023/08/09 06:24:24;;;;;;;;;;;;;;;13.65;100.00;101477.44;5013026;28;20344;-60
2023/08/09 06:26:49;;;;;;;;;;;;;;;13.61;100.00;101486.09;5013237;28;20338;-60
2023/08/09 06:29:15;;;;;;;;;;;;;;;13.58;100.00;101483.41;5012288;28;20363;-60
2023/08/09 06:31:41;;;;;;;;;;;;;;;13.55;100.00;101484.22;5013313;28;19963;-60
2023/08/09 06:34:06;;;;;;;;;;;;;;;13.56;100.00;101475.53;5010996;28;19921;-60
2023/08/09 06:36:33;;;;;;;;;;;;;;;13.58;100.00;101480.78;5010674;28;19921;-60
2023/08/09 06:38:58;;;;;;;;;;;;;;;13.61;100.00;101488.72;5012441;28;19963;-60
2023/08/09 06:41:24;;;;;;;;;;;;;;;13.62;100.00;101484.38;5013313;28;19913;-60
2023/08/09 06:43:49;;;;;;;;;;;;;;;13.64;100.00;101480.03;5013547;28;19912;-60
2023/08/09 06:46:14;;;;;;;;;;;;;;;13.68;100.00;101482.75;5013230;28;19962;-60
2023/08/09 06:48:39;;;;;;;;;;;;;;;13.72;100.00;101487.22;5012306;28;19975;-60
2023/08/09 06:51:05;;;;;;;;;;;;;;;13.80;100.00;101483.88;5012859;28;19917;-60
2023/08/09 06:53:30;;;;;;;;;;;;;;;13.83;100.00;101495.31;5013429;28;19920;-60
2023/08/09 06:55:55;;;;;;;;;;;;;;;13.93;100.00;101495.47;5011899;28;20376;-60
2023/08/09 06:58:21;;;;;;;;;;;;;;;13.97;100.00;101492.94;5013149;28;19921;-60
2023/08/09 07:00:46;;;;;;;;;;;;;;;14.03;100.00;101495.72;5014284;28;19916;-60
2023/08/09 07:03:12;;;;;;;;;;;;;;;14.12;100.00;101499.34;5013093;28;19917;-60
2023/08/09 07:05:37;;;;;;;;;;;;;;;14.18;100.00;101507.31;5011971;28;19913;-60
2023/08/09 07:08:02;;;;;;;;;;;;;;;14.17;100.00;101516.94;5012438;28;19917;-60
2023/08/09 07:10:28;;;;;;;;;;;;;;;14.18;100.00;101502.97;5013266;28;19913;-60
2023/08/09 07:12:53;;;;;;;;;;;;;;;14.23;100.00;101511.81;5011901;28;19917;-60
2023/08/09 07:15:18;;;;;;;;;;;;;;;14.29;100.00;101505.78;5008225;28;19913;-60
2023/08/09 07:17:44;;;;;;;;;;;;;;;14.35;100.00;101505.03;4991897;28;19917;-60
2023/08/09 07:20:11;;;;;;;;;;;;;;;14.39;100.00;101523.47;5010716;28;19920;-60
2023/08/09 07:22:37;;;;;;;;;;;;;;;14.44;100.00;101521.81;5012073;28;20016;-60
2023/08/09 07:25:02;;;;;;;;;;;;;;;14.56;100.00;101515.03;5010929;28;20013;-60
2023/08/09 07:27:27;;;;;;;;;;;;;;;14.49;100.00;101514.03;5009838;28;19914;-60
2023/08/09 07:29:53;;;;;;;;;;;;;;;14.56;100.00;101513.28;5010235;28;19964;-60
2023/08/09 07:32:18;;;;;;;;;;;;;;;14.65;100.00;101515.22;5010682;28;20275;-60
2023/08/09 07:34:43;;;;;;;;;;;;;;;14.73;100.00;101525.84;5011078;28;19917;-60
2023/08/09 07:37:08;;;;;;;;;;;;;;;14.71;100.00;101523.19;5011561;28;19961;-60
2023/08/09 07:39:34;;;;;;;;;;;;;;;14.72;100.00;101529.34;5009403;28;19972;-60
2023/08/09 07:42:00;;;;;;;;;;;;;;;14.75;100.00;101527.63;5013648;28;19909;-60
2023/08/09 07:44:25;;;;;;;;;;;;;;;14.83;100.00;101529.50;5011813;28;20272;-60
2023/08/09 07:46:50;;;;;;;;;;;;;;;14.93;100.00;101534.06;5011657;28;20284;-61
2023/08/09 07:49:16;;;;;;;;;;;;;;;15.04;100.00;101536.88;5011353;28;19961;-60
2023/08/09 07:51:41;;;;;;;;;;;;;;;15.07;100.00;101534.28;5010764;28;19913;-60
2023/08/09 07:54:07;;;;;;;;;;;;;;;15.06;100.00;101536.03;5007446;28;19923;-60
2023/08/09 07:56:34;;;;;;;;;;;;;;;15.12;100.00;101540.53;5010993;28;19923;-60
2023/08/09 07:58:59;;;;;;;;;;;;;;;15.20;100.00;101543.25;5012141;28;20015;-60
2023/08/09 08:01:24;;;;;;;;;;;;;;;15.19;100.00;101549.34;5011124;28;20335;-60
2023/08/09 08:03:49;;;;;;;;;;;;;;;15.23;100.00;101548.56;5010426;28;19917;-60
2023/08/09 08:06:16;;;;;;;;;;;;;;;15.32;100.00;101548.69;5012017;28;19913;-61
2023/08/09 08:08:42;;;;;;;;;;;;;;;15.43;100.00;101551.47;5011936;28;19910;-60
2023/08/09 08:11:07;;;;;;;;;;;;;;;15.47;100.00;101553.31;5010012;28;19974;-60
2023/08/09 08:13:32;;;;;;;;;;;;;;;15.44;100.00;101554.13;5009085;28;20387;-61
2023/08/09 08:15:57;;;;;;;;;;;;;;;15.53;100.00;101555.13;5011870;28;19914;-61
2023/08/09 08:18:23;;;;;;;;;;;;;;;15.70;100.00;101556.25;5012017;28;19916;-60
2023/08/09 08:20:48;;;;;;;;;;;;;;;15.69;100.00;101558.88;5011678;28;20363;-60
2023/08/09 08:23:13;;;;;;;;;;;;;;;15.67;100.00;101561.47;5011644;28;19917;-60
2023/08/09 08:25:38;;;;;;;;;;;;;;;15.73;100.00;101572.06;5008201;28;19925;-60
2023/08/09 08:28:05;;;;;;;;;;;;;;;15.78;100.00;101565.13;5010642;28;19914;-61
2023/08/09 08:30:31;;;;;;;;;;;;;;;15.88;100.00;101573.16;5011262;28;19909;-60
2023/08/09 08:32:56;;;;;;;;;;;;;;;15.97;100.00;101575.91;5011074;28;20403;-61
2023/08/09 08:35:24;;;;;;;;;;;;;;;16.01;100.00;101576.84;5011085;28;19992;-60
2023/08/09 08:37:50;;;;;;;;;;;;;;;16.07;100.00;101585.66;5008607;28;19925;-61
2023/08/09 08:40:19;;;;;;;;;;;;;;;16.04;100.00;101572.50;5010967;28;19913;-60
2023/08/09 08:42:45;;;;;;;;;;;;;;;16.17;100.00;101566.50;5009278;28;19921;-61
2023/08/09 08:45:11;;;;;;;;;;;;;;;16.35;100.00;101572.84;5010762;28;19917;-61
2023/08/09 08:47:38;;;;;;;;;;;;;;;16.58;100.00;101580.13;5008669;28;19939;-61
2023/08/09 08:50:03;;;;;;;;;;;;;;;16.66;100.00;101587.22;5007141;28;19980;-61
2023/08/09 08:52:29;;;;;;;;;;;;;;;16.81;100.00;101588.25;4992496;28;20395;-61
2023/08/09 08:54:55;;;;;;;;;;;;;;;16.86;100.00;101582.16;5009290;28;19917;-61
2023/08/09 08:57:20;;;;;;;;;;;;;;;17.01;100.00;101586.72;5007865;28;20511;-61
2023/08/09 08:59:46;;;;;;;;;;;;;;;17.10;100.00;101585.03;5009342;28;20372;-61
2023/08/09 09:02:11;;;;;;;;;;;;;;;17.27;100.00;101587.81;5008997;28;19917;-61
2023/08/09 09:04:38;;;;;;;;;;;;;;;17.43;100.00;101594.09;5009623;28;19917;-61
2023/08/09 09:07:05;;;;;;;;;;;;;;;17.60;100.00;101607.34;5009849;28;20008;-61
2023/08/09 09:09:30;;;;;;;;;;;;;;;17.76;100.00;101603.09;5009094;28;19921;-60
2023/08/09 09:11:55;;;;;;;;;;;;;;;17.78;100.00;101604.84;4992110;28;19913;-61
2023/08/09 09:14:21;;;;;;;;;;;;;;;17.88;100.00;101603.16;5002408;28;20455;-61
2023/08/09 09:16:48;;;;;;;;;;;;;;;17.90;100.00;101597.06;4988294;28;19925;-60
2023/08/09 09:19:14;;;;;;;;;;;;;;;18.00;100.00;101605.00;5004849;28;19975;-61
2023/08/09 09:21:40;;;;;;;;;;;;;;;18.11;100.00;101605.06;5008351;28;20311;-61
2023/08/09 09:24:07;;;;;;;;;;;;;;;18.29;100.00;101604.25;5007675;28;20495;-61
2023/08/09 09:26:33;;;;;;;;;;;;;;;18.39;100.00;101606.03;5010510;28;20486;-60
2023/08/09 09:28:58;;;;;;;;;;;;;;;18.42;100.00;101616.59;5008601;28;19921;-61
2023/08/09 09:31:33;;;;;;;;;;;;;;;18.47;100.00;101614.00;5003802;28;20028;-61
2023/08/09 09:33:59;;;;;;;;;;;;;;;18.58;100.00;101620.16;5003953;28;19924;-61
2023/08/09 09:36:25;;;;;;;;;;;;;;;18.75;97.28;101626.38;5007428;28;19918;-61
2023/08/09 09:38:53;;;;;;;;;;;;;;;18.68;97.80;101621.09;5009094;28;20498;-62
2023/08/09 09:41:18;;;;;;;;;;;;;;;18.70;98.59;101611.44;5008439;28;20410;-61
2023/08/09 09:43:46;;;;;;;;;;;;;;;18.73;94.72;101619.34;5010501;28;19939;-60
2023/08/09 09:46:18;;;;;;;;;;;;;;;18.59;95.45;101616.66;5006957;28;19939;-61
2023/08/09 09:48:50;;;;;;;;;;;;;;;18.47;96.94;101620.16;5007189;28;19936;-60
2023/08/09 09:51:16;;;;;;;;;;;;;;;18.55;97.20;101613.16;5007826;28;19913;-61
2023/08/09 09:53:43;;;;;;;;;;;;;;;18.86;96.76;101609.69;5005642;28;20376;-61
2023/08/09 09:56:09;;;;;;;;;;;;;;;19.05;94.55;101602.72;5008179;28;19927;-61
2023/08/09 09:58:34;;;;;;;;;;;;;;;19.04;95.87;101601.81;5012621;28;19921;-61
2023/08/09 10:01:01;;;;;;;;;;;;;;;19.07;94.82;101606.22;5010005;28;20560;-61
2023/08/09 10:03:28;;;;;;;;;;;;;;;19.25;93.57;101614.16;5008745;28;20511;-61
2023/08/09 10:05:54;;;;;;;;;;;;;;;19.42;92.48;101607.97;5010272;28;19964;-61
2023/08/09 10:08:21;;;;;;;;;;;;;;;19.60;92.88;101597.38;5010270;28;20515;-61
2023/08/09 10:10:49;;;;;;;;;;;;;;;19.83;92.94;101606.16;5009826;28;19921;-61
2023/08/09 10:13:16;;;;;;;;;;;;;;;20.01;92.19;101602.59;5011802;28;19920;-62
2023/08/09 10:15:51;;;;;;;;;;;;;;;20.00;86.24;101603.47;5010039;28;19913;-62
2023/08/09 10:18:25;;;;;;;;;;;;;;;20.11;87.00;101596.38;5009740;28;20189;-61
2023/08/09 10:20:52;;;;;;;;;;;;;;;20.20;91.08;101598.13;5012259;28;20028;-62
2023/08/09 10:23:25;;;;;;;;;;;;;;;20.29;88.91;101592.75;5011389;28;20364;-62
2023/08/09 10:25:51;;;;;;;;;;;;;;;20.38;88.93;101591.84;5004653;28;20439;-61
2023/08/09 10:28:17;;;;;;;;;;;;;;;20.57;86.19;101596.16;5011796;28;19976;-61
2023/08/09 10:30:47;;;;;;;;;;;;;;;20.65;89.07;101601.41;5011761;28;19936;-61
2023/08/09 10:33:18;;;;;;;;;;;;;;;20.80;83.56;101609.28;5010423;28;19919;-61
2023/08/09 10:35:43;;;;;;;;;;;;;;;20.71;85.27;101616.41;5007449;28;20438;-62
2023/08/09 10:38:11;;;;;;;;;;;;;;;20.70;82.35;101606.69;5010872;28;19945;-62
2023/08/09 10:40:36;;;;;;;;;;;;;;;20.46;84.92;101611.22;5011878;28;20010;-62
2023/08/09 10:43:03;;;;;;;;;;;;;;;20.34;87.13;101612.16;4994489;28;19922;-61
2023/08/09 10:45:30;;;;;;;;;;;;;;;20.53;84.17;101618.25;5011445;28;20000;-61
2023/08/09 10:48:14;;;;;;;;;;;;;;;20.71;78.40;101616.41;5012240;28;20320;-61
2023/08/09 10:50:40;;;;;;;;;;;;;;;20.74;81.80;101613.75;5009156;28;19917;-61
2023/08/09 10:53:06;;;;;;;;;;;;;;;20.74;83.08;101617.28;5012164;28;20007;-61
2023/08/09 10:55:31;;;;;;;;;;;;;;;20.80;81.04;101617.25;5012990;28;19917;-61
2023/08/09 10:57:58;;;;;;;;;;;;;;;20.81;82.92;101618.09;5014002;28;19940;-61
2023/08/09 11:00:24;;;;;;;;;;;;;;;20.73;83.46;101619.94;5013043;28;19919;-60
2023/08/09 11:02:51;;;;;;;;;;;;;;;20.73;81.35;101614.66;5008209;28;20375;-61
2023/08/09 11:05:17;;;;;;;;;;;;;;;20.77;80.69;101616.38;5009461;28;19920;-60
2023/08/09 11:07:46;;;;;;;;;;;;;;;20.94;76.67;101618.91;5010526;28;19914;-60
2023/08/09 11:10:15;;;;;;;;;;;;;;;21.07;76.10;101606.44;5013053;28;20400;-61
2023/08/09 11:12:42;;;;;;;;;;;;;;;21.28;78.16;101614.22;5013032;28;20004;-61
2023/08/09 11:15:07;;;;;;;;;;;;;;;21.28;74.23;101606.28;5010398;28;19913;-60
2023/08/09 11:17:33;;;;;;;;;;;;;;;21.29;73.71;101610.69;5011831;28;19936;-60
2023/08/09 11:19:58;;;;;;;;;;;;;;;21.30;71.16;101606.25;5009471;28;19920;-60
2023/08/09 11:22:23;;;;;;;;;;;;;;;21.12;69.84;101617.91;5010097;28;19967;-59
2023/08/09 11:24:48;;;;;;;;;;;;;;;21.02;73.47;101617.97;5012822;28;19920;-61
2023/08/09 11:27:14;;;;;;;;;;;;;;;21.18;69.86;101625.81;5011777;28;19909;-61
2023/08/09 11:29:39;;;;;;;;;;;;;;;21.21;68.74;101628.41;5009768;28;20488;-60
2023/08/09 11:32:04;;;;;;;;;;;;;;;21.24;70.42;101617.78;5009382;28;20391;-60
2023/08/09 11:34:29;;;;;;;;;;;;;;;21.17;66.91;101621.38;5010995;28;20435;-60
2023/08/09 11:36:55;;;;;;;;;;;;;;;21.05;68.83;101611.75;5011073;28;19924;-59
2023/08/09 11:39:22;;;;;;;;;;;;;;;21.06;71.07;101608.22;5011534;28;20032;-60
2023/08/09 11:41:50;;;;;;;;;;;;;;;21.29;72.04;101618.66;5011481;28;19920;-60
2023/08/09 11:44:16;;;;;;;;;;;;;;;21.34;73.42;101618.59;4994708;28;20198;-60
2023/08/09 11:46:45;;;;;;;;;;;;;;;21.53;68.56;101624.63;5012409;28;20207;-60
2023/08/09 11:49:10;;;;;;;;;;;;;;;21.51;65.33;101631.75;5011404;28;19949;-60
2023/08/09 11:51:36;;;;;;;;;;;;;;;21.30;66.00;101628.34;5011214;28;20011;-59
2023/08/09 11:54:02;;;;;;;;;;;;;;;21.27;68.17;101628.38;4994655;28;19976;-60
2023/08/09 11:56:31;;;;;;;;;;;;;;;21.33;65.79;101630.97;5012517;28;19921;-60
2023/08/09 11:58:58;;;;;;;;;;;;;;;21.25;65.03;101627.50;5012071;28;20303;-60
2023/08/09 12:01:27;;;;;;;;;;;;;;;21.31;68.88;101630.09;5012233;28;19920;-60
2023/08/09 12:03:57;;;;;;;;;;;;;;;21.41;68.21;101638.00;5010997;28;19909;-60
2023/08/09 12:06:34;;;;;;;;;;;;;;;21.21;67.89;101639.03;5012015;28;19917;-60
2023/08/09 12:09:00;;;;;;;;;;;;;;;21.20;68.25;101642.56;5010969;28;20000;-60
2023/08/09 12:11:25;;;;;;;;;;;;;;;21.50;70.64;101644.06;5011982;28;20473;-60
2023/08/09 12:13:50;;;;;;;;;;;;;;;21.81;66.17;101646.47;5012026;28;19916;-60
2023/08/09 12:16:16;;;;;;;;;;;;;;;21.88;66.83;101644.63;5010957;28;19920;-60
2023/08/09 12:18:41;;;;;;;;;;;;;;;22.06;69.96;101644.41;5011086;28;19920;-60
2023/08/09 12:21:08;;;;;;;;;;;;;;;22.02;67.99;101650.66;5009531;28;20371;-60